createdAt,value
2023-01-01T00:02:20.129Z,99420.80
2023-01-01T00:05:17.596Z,99419.00
2023-01-01T00:08:15.267Z,99418.80
2023-01-01T00:11:12.705Z,99423.40
2023-01-01T00:14:12.709Z,99424.20
2023-01-01T00:17:10.527Z,99423.20
2023-01-01T00:20:08.569Z,99419.00
2023-01-01T00:23:06.290Z,99416.20
2023-01-01T00:26:03.716Z,99417.60
2023-01-01T00:29:01.633Z,99423.20
2023-01-01T00:31:59.130Z,99421.60
2023-01-01T00:34:56.853Z,99411.60
2023-01-01T00:37:54.615Z,99403.20
2023-01-01T00:40:52.027Z,99404.20
2023-01-01T00:43:49.605Z,99409.80
2023-01-01T00:46:47.027Z,99416.60
2023-01-01T00:49:44.869Z,99419.80
2023-01-01T00:52:42.296Z,99429.40
2023-01-01T00:55:40.001Z,99418.40
2023-01-01T00:58:37.705Z,99408.60
2023-01-01T01:01:35.915Z,99401.00
2023-01-01T01:04:33.801Z,99396.20
2023-01-01T01:07:31.212Z,99405.40
2023-01-01T01:10:28.945Z,99411.20
2023-01-01T01:13:26.361Z,99414.60
2023-01-01T01:16:24.109Z,99409.80
2023-01-01T01:19:24.106Z,99417.20
2023-01-01T01:22:28.040Z,99416.60
2023-01-01T01:25:26.675Z,99412.00
2023-01-01T01:28:24.247Z,99416.60
2023-01-01T01:31:21.944Z,99414.60
2023-01-01T01:34:25.632Z,99416.20
2023-01-01T01:37:25.541Z,99408.60
2023-01-01T01:40:22.972Z,99398.00
2023-01-01T01:43:20.745Z,99405.60
2023-01-01T01:46:18.195Z,99407.60
2023-01-01T01:49:16.443Z,99404.80
2023-01-01T01:52:13.885Z,99406.20
2023-01-01T01:55:11.519Z,99404.20
2023-01-01T01:58:09.144Z,99401.80
2023-01-01T02:01:07.282Z,99395.00
2023-01-01T02:04:05.242Z,99395.00
2023-01-01T02:07:02.675Z,99389.20
2023-01-01T02:10:00.449Z,99392.40
2023-01-01T02:12:57.887Z,99378.40
2023-01-01T02:15:55.563Z,99375.60
2023-01-01T02:18:53.024Z,99365.20
2023-01-01T02:21:50.831Z,99373.40
2023-01-01T02:24:48.433Z,99371.60
2023-01-01T02:27:45.869Z,99375.00
2023-01-01T02:30:43.636Z,99376.00
2023-01-01T02:33:41.119Z,99387.40
2023-01-01T02:36:38.940Z,99389.80
2023-01-01T02:39:36.365Z,99390.40
2023-01-01T02:42:34.148Z,99387.60
2023-01-01T02:45:32.409Z,99386.40
2023-01-01T02:48:30.087Z,99390.80
2023-01-01T02:51:27.546Z,99387.60
2023-01-01T02:54:25.309Z,99397.20
2023-01-01T02:57:22.725Z,99396.80
2023-01-01T03:00:24.590Z,99409.00
2023-01-01T03:03:22.087Z,99420.00
2023-01-01T03:06:27.324Z,99422.00
2023-01-01T03:09:25.215Z,99426.40
2023-01-01T03:12:22.713Z,99423.40
2023-01-01T03:15:20.444Z,99440.40
2023-01-01T03:18:17.878Z,99449.40
2023-01-01T03:24:12.864Z,99450.80
2023-01-01T03:27:10.461Z,99456.60
2023-01-01T03:30:08.880Z,99462.00
2023-01-01T03:33:08.101Z,99456.60
2023-01-01T03:36:05.779Z,99460.80
2023-01-01T03:39:03.191Z,99468.00
2023-01-01T03:42:00.979Z,99475.00
2023-01-01T03:44:58.700Z,99478.00
2023-01-01T03:47:56.360Z,99471.40
2023-01-01T03:50:54.060Z,99474.20
2023-01-01T03:53:51.486Z,99469.00
2023-01-01T03:56:49.297Z,99477.20
2023-01-01T03:59:46.744Z,99480.00
2023-01-01T04:02:44.588Z,99482.40
2023-01-01T04:05:42.182Z,99479.20
2023-01-01T04:08:39.846Z,99471.80
2023-01-01T04:11:55.163Z,99478.20
2023-01-01T04:14:52.890Z,99470.60
2023-01-01T04:17:50.314Z,99469.20
2023-01-01T04:20:47.948Z,99466.60
2023-01-01T04:23:45.410Z,99466.20
2023-01-01T04:26:43.159Z,99468.00
2023-01-01T04:29:42.358Z,99477.60
2023-01-01T04:32:39.795Z,99484.60
2023-01-01T04:35:37.565Z,99479.00
2023-01-01T04:38:35.279Z,99482.60
2023-01-01T04:41:32.932Z,99483.60
2023-01-01T04:44:30.409Z,99483.60
2023-01-01T04:47:28.327Z,99482.20
2023-01-01T04:50:25.802Z,99486.00
2023-01-01T04:53:23.395Z,99482.40
2023-01-01T04:56:20.864Z,99488.00
2023-01-01T04:59:18.582Z,99486.20
2023-01-01T05:02:16.101Z,99493.80
2023-01-01T05:05:13.915Z,99498.80
2023-01-01T05:08:11.668Z,99496.80
2023-01-01T05:11:09.118Z,99501.20
2023-01-01T05:14:06.863Z,99507.60
2023-01-01T05:17:04.321Z,99513.00
2023-01-01T05:20:01.911Z,99516.60
2023-01-01T05:22:59.333Z,99518.00
2023-01-01T05:25:56.996Z,99522.20
2023-01-01T05:28:54.475Z,99520.40
2023-01-01T05:31:52.298Z,99527.00
2023-01-01T05:34:49.932Z,99523.00
2023-01-01T05:37:47.429Z,99524.40
2023-01-01T05:40:45.165Z,99526.80
2023-01-01T05:43:42.599Z,99525.60
2023-01-01T05:46:40.262Z,99532.20
2023-01-01T05:49:37.752Z,99538.40
2023-01-01T05:52:35.349Z,99537.40
2023-01-01T05:55:32.786Z,99534.00
2023-01-01T05:58:30.530Z,99537.00
2023-01-01T06:01:28.007Z,99540.60
2023-01-01T06:04:25.798Z,99550.20
2023-01-01T06:07:23.252Z,99550.80
2023-01-01T06:10:20.838Z,99545.40
2023-01-01T06:13:18.298Z,99539.60
2023-01-01T06:16:15.992Z,99546.00
2023-01-01T06:19:13.784Z,99562.40
2023-01-01T06:22:11.235Z,99574.60
2023-01-01T06:25:08.907Z,99567.40
2023-01-01T06:28:06.363Z,99558.60
2023-01-01T06:31:04.122Z,99568.40
2023-01-01T06:34:01.583Z,99562.60
2023-01-01T06:37:04.719Z,99571.20
2023-01-01T06:40:04.414Z,99577.60
2023-01-01T06:43:02.100Z,99595.60
2023-01-01T06:45:59.540Z,99587.40
2023-01-01T06:48:57.394Z,99568.80
2023-01-01T06:51:54.828Z,99576.60
2023-01-01T06:54:52.608Z,99580.20
2023-01-01T06:57:50.295Z,99581.20
2023-01-01T07:00:47.726Z,99585.20
2023-01-01T07:03:45.530Z,99585.00
2023-01-01T07:06:42.983Z,99590.40
2023-01-01T07:09:40.765Z,99598.80
2023-01-01T07:12:38.197Z,99604.40
2023-01-01T07:15:36.301Z,99605.20
2023-01-01T07:18:33.790Z,99606.20
2023-01-01T07:21:31.599Z,99600.40
2023-01-01T07:24:29.057Z,99606.60
2023-01-01T07:27:26.836Z,99621.20
2023-01-01T07:30:24.592Z,99636.40
2023-01-01T07:33:22.023Z,99636.60
2023-01-01T07:36:19.812Z,99640.60
2023-01-01T07:39:17.246Z,99646.40
2023-01-01T07:42:15.044Z,99657.40
2023-01-01T07:45:12.475Z,99654.00
2023-01-01T07:48:10.203Z,99655.20
2023-01-01T07:51:07.624Z,99654.20
2023-01-01T07:54:07.490Z,99660.20
2023-01-01T07:57:05.171Z,99656.60
2023-01-01T08:00:04.101Z,99659.00
2023-01-01T08:03:03.361Z,99663.00
2023-01-01T08:06:00.849Z,99668.60
2023-01-01T08:08:58.428Z,99665.20
2023-01-01T08:11:58.603Z,99661.40
2023-01-01T08:14:56.201Z,99670.80
2023-01-01T08:17:53.604Z,99669.00
2023-01-01T08:20:51.299Z,99673.20
2023-01-01T08:23:48.720Z,99681.60
2023-01-01T08:26:46.413Z,99698.20
2023-01-01T08:29:44.098Z,99691.00
2023-01-01T08:32:41.541Z,99684.60
2023-01-01T08:35:39.239Z,99677.80
2023-01-01T08:38:36.649Z,99678.80
2023-01-01T08:41:34.373Z,99679.40
2023-01-01T08:44:32.020Z,99670.20
2023-01-01T08:47:29.712Z,99677.20
2023-01-01T08:50:27.172Z,99690.60
2023-01-01T08:53:24.933Z,99683.40
2023-01-01T08:56:22.356Z,99674.80
2023-01-01T08:59:20.160Z,99670.60
2023-01-01T09:02:18.078Z,99678.60
2023-01-01T09:05:15.697Z,99682.80
2023-01-01T09:08:13.396Z,99692.60
2023-01-01T09:11:10.807Z,99698.40
2023-01-01T09:14:08.454Z,99709.80
2023-01-01T09:17:05.875Z,99707.80
2023-01-01T09:20:04.005Z,99701.80
2023-01-01T09:23:05.846Z,99701.80
2023-01-01T09:26:03.951Z,99705.00
2023-01-01T09:29:01.442Z,99721.40
2023-01-01T09:31:59.239Z,99714.20
2023-01-01T09:34:57.655Z,99715.40
2023-01-01T09:37:55.075Z,99722.20
2023-01-01T09:40:52.799Z,99723.00
2023-01-01T09:43:50.231Z,99725.40
2023-01-01T09:46:47.930Z,99724.40
2023-01-01T09:49:45.365Z,99728.80
2023-01-01T09:52:43.157Z,99729.20
2023-01-01T09:55:40.572Z,99727.60
2023-01-01T09:58:38.214Z,99728.20
2023-01-01T10:01:35.952Z,99728.60
2023-01-01T10:04:33.515Z,99726.60
2023-01-01T10:07:31.262Z,99723.00
2023-01-01T10:10:28.679Z,99714.40
2023-01-01T10:13:26.388Z,99711.60
2023-01-01T10:16:25.247Z,99711.80
2023-01-01T10:19:22.920Z,99710.40
2023-01-01T10:22:20.604Z,99718.40
2023-01-01T10:25:18.024Z,99718.60
2023-01-01T10:28:15.735Z,99718.40
2023-01-01T10:31:13.148Z,99710.40
2023-01-01T10:34:10.856Z,99705.00
2023-01-01T10:37:08.285Z,99713.00
2023-01-01T10:40:06.795Z,99713.40
2023-01-01T10:43:05.020Z,99707.00
2023-01-01T10:46:02.435Z,99705.40
2023-01-01T10:49:00.728Z,99715.80
2023-01-01T10:51:59.322Z,99720.00
2023-01-01T10:54:57.074Z,99718.20
2023-01-01T10:57:54.502Z,99715.20
2023-01-01T11:00:52.215Z,99710.60
2023-01-01T11:03:49.832Z,99713.20
2023-01-01T11:06:47.783Z,99714.60
2023-01-01T11:10:02.159Z,99709.40
2023-01-01T11:13:05.683Z,99713.00
2023-01-01T11:16:03.854Z,99705.00
2023-01-01T11:19:01.495Z,99704.20
2023-01-01T11:21:58.941Z,99704.60
2023-01-01T11:24:56.607Z,99703.20
2023-01-01T11:27:54.025Z,99706.80
2023-01-01T11:30:51.824Z,99703.00
2023-01-01T11:33:49.325Z,99702.60
2023-01-01T11:36:47.100Z,99697.20
2023-01-01T11:39:45.002Z,99693.00
2023-01-01T11:42:42.414Z,99691.20
2023-01-01T11:45:40.092Z,99692.20
2023-01-01T11:48:37.541Z,99692.20
2023-01-01T11:51:35.404Z,99689.60
2023-01-01T11:54:36.202Z,99691.00
2023-01-01T11:57:34.166Z,99691.00
2023-01-01T12:00:31.919Z,99693.80
2023-01-01T12:03:33.345Z,99690.80
2023-01-01T12:06:31.602Z,99690.40
2023-01-01T12:09:28.992Z,99690.60
2023-01-01T12:12:26.592Z,99684.20
2023-01-01T12:15:24.000Z,99689.00
2023-01-01T12:18:21.658Z,99687.60
2023-01-01T12:21:19.350Z,99689.80
2023-01-01T12:24:17.544Z,99684.00
2023-01-01T12:27:15.193Z,99686.20
2023-01-01T12:30:12.674Z,99691.00
2023-01-01T12:33:11.236Z,99692.00
2023-01-01T12:36:08.649Z,99688.20
2023-01-01T12:39:06.364Z,99684.00
2023-01-01T12:42:03.971Z,99685.00
2023-01-01T12:45:01.373Z,99682.60
2023-01-01T12:47:59.149Z,99683.80
2023-01-01T12:51:03.152Z,99682.60
2023-01-01T12:54:03.059Z,99686.40
2023-01-01T12:57:00.511Z,99671.20
2023-01-01T12:59:58.205Z,99671.80
2023-01-01T13:02:56.057Z,99679.00
2023-01-01T13:05:53.524Z,99678.00
2023-01-01T13:08:51.191Z,99672.60
2023-01-01T13:11:48.622Z,99674.00
2023-01-01T13:14:46.319Z,99674.20
2023-01-01T13:17:43.751Z,99676.60
2023-01-01T13:20:41.451Z,99678.40
2023-01-01T13:23:40.952Z,99670.40
2023-01-01T13:26:38.373Z,99675.00
2023-01-01T13:29:36.654Z,99675.00
2023-01-01T13:32:34.109Z,99677.60
2023-01-01T13:35:31.820Z,99680.60
2023-01-01T13:38:29.238Z,99675.20
2023-01-01T13:41:26.946Z,99677.20
2023-01-01T13:44:24.404Z,99676.20
2023-01-01T13:47:22.077Z,99671.00
2023-01-01T13:50:19.510Z,99674.40
2023-01-01T13:53:17.193Z,99678.40
2023-01-01T13:56:14.630Z,99682.40
2023-01-01T13:59:12.309Z,99681.80
2023-01-01T14:02:11.115Z,99684.60
2023-01-01T14:05:09.722Z,99693.80
2023-01-01T14:08:13.110Z,99696.40
2023-01-01T14:11:10.758Z,99696.40
2023-01-01T14:14:08.359Z,99704.20
2023-01-01T14:17:05.829Z,99702.60
2023-01-01T14:20:04.378Z,99708.00
2023-01-01T14:23:02.129Z,99712.20
2023-01-01T14:25:59.549Z,99714.80
2023-01-01T14:28:57.268Z,99718.40
2023-01-01T14:31:54.723Z,99721.40
2023-01-01T14:34:52.385Z,99725.00
2023-01-01T14:37:49.806Z,99738.20
2023-01-01T14:40:47.510Z,99739.80
2023-01-01T14:43:44.939Z,99734.40
2023-01-01T14:46:43.488Z,99735.20
2023-01-01T14:49:41.084Z,99738.80
2023-01-01T14:52:38.591Z,99741.80
2023-01-01T14:55:36.557Z,99740.60
2023-01-01T14:58:34.120Z,99742.80
2023-01-01T15:01:31.862Z,99740.00
2023-01-01T15:04:29.441Z,99746.80
2023-01-01T15:07:27.213Z,99743.60
2023-01-01T15:10:24.993Z,99741.60
2023-01-01T15:13:22.416Z,99744.80
2023-01-01T15:16:20.290Z,99739.80
2023-01-01T15:19:17.817Z,99740.60
2023-01-01T15:22:15.642Z,99742.40
2023-01-01T15:25:13.309Z,99752.40
2023-01-01T15:28:10.726Z,99754.00
2023-01-01T15:31:08.437Z,99751.00
2023-01-01T15:34:05.858Z,99750.20
2023-01-01T15:37:03.639Z,99755.40
2023-01-01T15:40:01.420Z,99760.20
2023-01-01T15:42:58.857Z,99756.60
2023-01-01T15:45:56.769Z,99756.60
2023-01-01T15:48:54.421Z,99756.80
2023-01-01T15:51:52.061Z,99761.20
2023-01-01T15:54:49.503Z,99753.60
2023-01-01T15:57:47.201Z,99752.60
2023-01-01T16:00:45.842Z,99760.60
2023-01-01T16:03:43.284Z,99756.40
2023-01-01T16:06:40.917Z,99751.00
2023-01-01T16:09:38.355Z,99757.00
2023-01-01T16:12:36.138Z,99760.00
2023-01-01T16:15:33.558Z,99760.20
2023-01-01T16:18:31.271Z,99759.00
2023-01-01T16:21:29.056Z,99765.80
2023-01-01T16:24:26.483Z,99759.80
2023-01-01T16:27:24.263Z,99770.00
2023-01-01T16:30:21.764Z,99773.00
2023-01-01T16:33:19.677Z,99766.60
2023-01-01T16:36:17.157Z,99771.20
2023-01-01T16:39:14.855Z,99775.20
2023-01-01T16:42:12.311Z,99768.20
2023-01-01T16:45:10.133Z,99779.00
2023-01-01T16:48:07.871Z,99779.40
2023-01-01T16:51:06.023Z,99779.00
2023-01-01T16:54:03.638Z,99779.60
2023-01-01T16:57:01.049Z,99779.80
2023-01-01T16:59:58.759Z,99786.40
2023-01-01T17:02:56.381Z,99795.60
2023-01-01T17:05:54.310Z,99799.60
2023-01-01T17:08:52.057Z,99799.20
2023-01-01T17:11:49.826Z,99794.20
2023-01-01T17:14:48.325Z,99803.20
2023-01-01T17:17:45.939Z,99805.80
2023-01-01T17:20:43.681Z,99805.20
2023-01-01T17:23:41.963Z,99800.00
2023-01-01T17:26:39.692Z,99800.00
2023-01-01T17:29:37.607Z,99807.60
2023-01-01T17:32:35.216Z,99806.80
2023-01-01T17:35:33.500Z,99802.80
2023-01-01T17:38:31.480Z,99800.80
2023-01-01T17:41:29.797Z,99811.40
2023-01-01T17:44:27.338Z,99808.60
2023-01-01T17:47:29.298Z,99806.80
2023-01-01T17:50:30.739Z,99804.80
2023-01-01T17:53:28.463Z,99800.20
2023-01-01T17:56:26.289Z,99801.40
2023-01-01T17:59:24.494Z,99796.40
2023-01-01T18:02:23.222Z,99796.00
2023-01-01T18:05:21.268Z,99798.00
2023-01-01T18:08:18.719Z,99790.20
2023-01-01T18:11:16.464Z,99782.80
2023-01-01T18:14:16.345Z,99787.80
2023-01-01T18:17:18.197Z,99785.00
2023-01-01T18:20:17.754Z,99785.60
2023-01-01T18:23:15.533Z,99788.60
2023-01-01T18:26:14.513Z,99786.60
2023-01-01T18:29:12.348Z,99785.40
2023-01-01T18:32:10.458Z,99788.20
2023-01-01T18:35:08.301Z,99793.40
2023-01-01T18:38:19.547Z,99796.00
2023-01-01T18:41:20.660Z,99791.80
2023-01-01T18:44:18.424Z,99788.20
2023-01-01T18:47:17.439Z,99794.00
2023-01-01T18:50:15.356Z,99791.00
2023-01-01T18:53:13.553Z,99795.00
2023-01-01T18:56:11.214Z,99799.60
2023-01-01T18:59:09.098Z,99794.20
2023-01-01T19:02:09.975Z,99793.20
2023-01-01T19:05:08.197Z,99782.80
2023-01-01T19:08:05.980Z,99788.20
2023-01-01T19:11:06.724Z,99779.60
2023-01-01T19:14:04.596Z,99786.60
2023-01-01T19:17:02.773Z,99785.40
2023-01-01T19:20:00.958Z,99777.40
2023-01-01T19:22:59.471Z,99773.40
2023-01-01T19:25:57.666Z,99773.80
2023-01-01T19:28:55.586Z,99777.60
2023-01-01T19:31:54.085Z,99774.80
2023-01-01T19:34:52.033Z,99776.00
2023-01-01T19:37:49.471Z,99775.80
2023-01-01T19:40:47.359Z,99773.80
2023-01-01T19:43:44.865Z,99778.40
2023-01-01T19:46:43.163Z,99779.40
2023-01-01T19:49:40.958Z,99786.20
2023-01-01T19:52:39.261Z,99785.40
2023-01-01T19:55:38.261Z,99781.80
2023-01-01T19:58:37.134Z,99780.80
2023-01-01T20:01:36.060Z,99780.20
2023-01-01T20:04:35.028Z,99785.60
2023-01-01T20:07:34.891Z,99782.40
2023-01-01T20:10:33.628Z,99775.20
2023-01-01T20:13:31.988Z,99767.00
2023-01-01T20:16:31.350Z,99765.80
2023-01-01T20:19:30.109Z,99768.60
2023-01-01T20:22:33.003Z,99768.00
2023-01-01T20:25:31.676Z,99763.80
2023-01-01T20:28:47.882Z,99764.20
2023-01-01T20:31:46.859Z,99765.40
2023-01-01T20:34:45.469Z,99764.80
2023-01-01T20:37:44.772Z,99765.80
2023-01-01T20:40:43.104Z,99763.60
2023-01-01T20:43:41.936Z,99766.40
2023-01-01T20:46:42.040Z,99765.20
2023-01-01T20:49:41.399Z,99764.20
2023-01-01T20:52:39.852Z,99763.20
2023-01-01T20:55:38.923Z,99759.80
2023-01-01T20:58:40.329Z,99761.80
2023-01-01T21:01:43.403Z,99768.20
2023-01-01T21:04:44.908Z,99770.40
2023-01-01T21:07:42.409Z,99770.80
2023-01-01T21:10:41.127Z,99773.80
2023-01-01T21:13:39.683Z,99770.20
2023-01-01T21:16:40.746Z,99770.80
2023-01-01T21:19:42.075Z,99765.60
2023-01-01T21:22:42.355Z,99760.00
2023-01-01T21:25:52.609Z,99763.80
2023-01-01T21:28:50.207Z,99760.20
2023-01-01T21:31:48.030Z,99761.20
2023-01-01T21:34:45.762Z,99763.40
2023-01-01T21:37:50.080Z,99762.60
2023-01-01T21:40:47.931Z,99764.40
2023-01-01T21:43:45.363Z,99767.20
2023-01-01T21:46:47.360Z,99755.80
2023-01-01T21:49:44.836Z,99748.40
2023-01-01T21:52:47.350Z,99753.20
2023-01-01T21:55:54.780Z,99752.40
2023-01-01T21:59:10.033Z,99748.80
2023-01-01T22:02:09.179Z,99753.00
2023-01-01T22:05:06.842Z,99749.80
2023-01-01T22:08:04.523Z,99751.80
2023-01-01T22:11:01.963Z,99743.80
2023-01-01T22:13:59.683Z,99741.80
2023-01-01T22:16:57.462Z,99733.20
2023-01-01T22:19:54.899Z,99731.00
2023-01-01T22:22:52.581Z,99722.40
2023-01-01T22:25:50.035Z,99727.20
2023-01-01T22:28:47.645Z,99733.80
2023-01-01T22:31:49.140Z,99741.60
2023-01-01T22:34:47.369Z,99742.00
2023-01-01T22:37:45.879Z,99748.60
2023-01-01T22:40:45.890Z,99741.80
2023-01-01T22:43:43.647Z,99737.00
2023-01-01T22:46:41.298Z,99730.60
2023-01-01T22:49:39.046Z,99736.00
2023-01-01T22:52:36.518Z,99735.00
2023-01-01T22:55:34.322Z,99733.20
2023-01-01T22:58:32.098Z,99730.80
2023-01-01T23:01:29.604Z,99732.00
2023-01-01T23:04:27.303Z,99724.00
2023-01-01T23:07:24.725Z,99721.00
2023-01-01T23:10:22.360Z,99714.20
2023-01-01T23:13:37.515Z,99714.60
2023-01-01T23:16:35.678Z,99715.20
2023-01-01T23:19:33.437Z,99713.40
2023-01-01T23:22:30.884Z,99716.80
2023-01-01T23:25:28.746Z,99717.20
2023-01-01T23:28:26.190Z,99721.00
2023-01-01T23:31:25.446Z,99712.00
2023-01-01T23:34:23.220Z,99713.40
2023-01-01T23:37:20.850Z,99712.40
2023-01-01T23:40:18.285Z,99707.40
2023-01-01T23:43:15.995Z,99695.60
2023-01-01T23:46:13.439Z,99689.60
2023-01-01T23:49:11.323Z,99679.60
2023-01-01T23:52:08.986Z,99674.00
2023-01-01T23:55:06.446Z,99675.60
2023-01-01T23:58:04.210Z,99671.60
